sensor_id;sensor_type;location;lat;lon;timestamp;temperature;humidity
71436;SHT31;59251;51.326;12.370;2022-07-29T00:02:12;18.33;53.59
71436;SHT31;59251;51.326;12.370;2022-07-29T00:04:37;18.29;53.65
71436;SHT31;59251;51.326;12.370;2022-07-29T00:07:03;18.27;53.67
71436;SHT31;59251;51.326;12.370;2022-07-29T00:09:29;18.30;53.76
71436;SHT31;59251;51.326;12.370;2022-07-29T00:11:57;18.27;53.85
71436;SHT31;59251;51.326;12.370;2022-07-29T00:14:23;18.27;53.88
71436;SHT31;59251;51.326;12.370;2022-07-29T00:16:48;18.29;53.84
71436;SHT31;59251;51.326;12.370;2022-07-29T00:19:14;18.26;53.89
71436;SHT31;59251;51.326;12.370;2022-07-29T00:21:39;18.29;53.96
71436;SHT31;59251;51.326;12.370;2022-07-29T00:24:05;18.22;54.02
71436;SHT31;59251;51.326;12.370;2022-07-29T00:26:30;18.17;54.04
71436;SHT31;59251;51.326;12.370;2022-07-29T00:28:59;18.17;54.14
71436;SHT31;59251;51.326;12.370;2022-07-29T00:31:24;18.20;54.16
71436;SHT31;59251;51.326;12.370;2022-07-29T00:33:50;18.14;54.31
71436;SHT31;59251;51.326;12.370;2022-07-29T00:36:15;18.13;54.36
71436;SHT31;59251;51.326;12.370;2022-07-29T00:38:40;18.05;54.54
71436;SHT31;59251;51.326;12.370;2022-07-29T00:41:09;18.08;54.54
71436;SHT31;59251;51.326;12.370;2022-07-29T00:43:35;18.09;54.62
71436;SHT31;59251;51.326;12.370;2022-07-29T00:46:00;18.02;54.69
71436;SHT31;59251;51.326;12.370;2022-07-29T00:48:25;17.99;54.76
71436;SHT31;59251;51.326;12.370;2022-07-29T00:50:51;17.99;54.85
71436;SHT31;59251;51.326;12.370;2022-07-29T00:53:16;17.96;54.87
71436;SHT31;59251;51.326;12.370;2022-07-29T00:55:42;17.92;55.09
71436;SHT31;59251;51.326;12.370;2022-07-29T00:58:08;17.93;55.01
71436;SHT31;59251;51.326;12.370;2022-07-29T01:00:33;17.95;55.01
71436;SHT31;59251;51.326;12.370;2022-07-29T01:02:59;17.92;55.10
71436;SHT31;59251;51.326;12.370;2022-07-29T01:05:26;17.88;55.23
71436;SHT31;59251;51.326;12.370;2022-07-29T01:07:54;17.85;55.22
71436;SHT31;59251;51.326;12.370;2022-07-29T01:10:20;17.88;55.29
71436;SHT31;59251;51.326;12.370;2022-07-29T01:12:48;17.85;55.29
71436;SHT31;59251;51.326;12.370;2022-07-29T01:15:14;17.83;55.39
71436;SHT31;59251;51.326;12.370;2022-07-29T01:18:12;17.83;55.45
71436;SHT31;59251;51.326;12.370;2022-07-29T01:26:45;17.72;55.67
71436;SHT31;59251;51.326;12.370;2022-07-29T01:31:57;17.71;55.86
71436;SHT31;59251;51.326;12.370;2022-07-29T01:34:29;17.74;55.81
71436;SHT31;59251;51.326;12.370;2022-07-29T01:37:09;17.71;55.97
71436;SHT31;59251;51.326;12.370;2022-07-29T01:39:39;17.64;56.13
71436;SHT31;59251;51.326;12.370;2022-07-29T01:42:24;17.65;56.37
71436;SHT31;59251;51.326;12.370;2022-07-29T01:45:02;17.58;56.41
71436;SHT31;59251;51.326;12.370;2022-07-29T01:47:42;17.62;56.37
71436;SHT31;59251;51.326;12.370;2022-07-29T01:50:12;17.51;56.49
71436;SHT31;59251;51.326;12.370;2022-07-29T01:52:45;17.54;56.50
71436;SHT31;59251;51.326;12.370;2022-07-29T01:55:15;17.54;56.57
71436;SHT31;59251;51.326;12.370;2022-07-29T01:57:44;17.47;56.77
71436;SHT31;59251;51.326;12.370;2022-07-29T02:00:14;17.47;56.71
71436;SHT31;59251;51.326;12.370;2022-07-29T02:02:42;17.55;56.59
71436;SHT31;59251;51.326;12.370;2022-07-29T02:05:11;17.44;56.78
71436;SHT31;59251;51.326;12.370;2022-07-29T02:07:39;17.54;56.71
71436;SHT31;59251;51.326;12.370;2022-07-29T02:10:06;17.44;56.94
71436;SHT31;59251;51.326;12.370;2022-07-29T02:12:33;17.47;56.78
71436;SHT31;59251;51.326;12.370;2022-07-29T02:15:01;17.45;56.72
71436;SHT31;59251;51.326;12.370;2022-07-29T02:17:32;17.52;56.55
71436;SHT31;59251;51.326;12.370;2022-07-29T02:20:00;17.35;57.10
71436;SHT31;59251;51.326;12.370;2022-07-29T02:22:28;17.31;57.27
71436;SHT31;59251;51.326;12.370;2022-07-29T02:24:55;17.24;57.43
71436;SHT31;59251;51.326;12.370;2022-07-29T02:27:21;17.21;57.45
71436;SHT31;59251;51.326;12.370;2022-07-29T02:29:48;17.26;57.49
71436;SHT31;59251;51.326;12.370;2022-07-29T02:32:16;17.27;57.42
71436;SHT31;59251;51.326;12.370;2022-07-29T02:34:43;17.23;57.45
71436;SHT31;59251;51.326;12.370;2022-07-29T02:37:11;17.14;57.63
71436;SHT31;59251;51.326;12.370;2022-07-29T02:39:37;17.16;57.69
71436;SHT31;59251;51.326;12.370;2022-07-29T02:42:07;17.10;57.84
71436;SHT31;59251;51.326;12.370;2022-07-29T02:44:35;17.10;57.91
71436;SHT31;59251;51.326;12.370;2022-07-29T02:47:29;17.14;57.66
71436;SHT31;59251;51.326;12.370;2022-07-29T02:52:51;17.14;57.84
71436;SHT31;59251;51.326;12.370;2022-07-29T02:55:22;17.09;57.94
71436;SHT31;59251;51.326;12.370;2022-07-29T02:58:01;17.14;58.00
71436;SHT31;59251;51.326;12.370;2022-07-29T03:00:29;17.14;58.05
71436;SHT31;59251;51.326;12.370;2022-07-29T03:02:56;17.14;58.09
71436;SHT31;59251;51.326;12.370;2022-07-29T03:05:24;17.09;58.13
71436;SHT31;59251;51.326;12.370;2022-07-29T03:07:54;17.06;58.24
71436;SHT31;59251;51.326;12.370;2022-07-29T03:10:21;17.04;58.43
71436;SHT31;59251;51.326;12.370;2022-07-29T03:12:47;16.99;58.50
71436;SHT31;59251;51.326;12.370;2022-07-29T03:15:13;16.96;58.51
71436;SHT31;59251;51.326;12.370;2022-07-29T03:17:39;16.90;58.68
71436;SHT31;59251;51.326;12.370;2022-07-29T03:20:07;16.92;58.66
71436;SHT31;59251;51.326;12.370;2022-07-29T03:22:32;16.86;58.83
71436;SHT31;59251;51.326;12.370;2022-07-29T03:25:07;16.84;58.83
71436;SHT31;59251;51.326;12.370;2022-07-29T03:27:34;16.90;58.83
71436;SHT31;59251;51.326;12.370;2022-07-29T03:29:59;16.92;58.86
71436;SHT31;59251;51.326;12.370;2022-07-29T03:32:24;16.86;58.97
71436;SHT31;59251;51.326;12.370;2022-07-29T03:34:50;16.83;59.04
71436;SHT31;59251;51.326;12.370;2022-07-29T03:37:15;16.76;59.14
71436;SHT31;59251;51.326;12.370;2022-07-29T03:39:41;16.75;59.29
71436;SHT31;59251;51.326;12.370;2022-07-29T03:42:10;16.77;59.07
71436;SHT31;59251;51.326;12.370;2022-07-29T03:44:38;16.73;59.37
71436;SHT31;59251;51.326;12.370;2022-07-29T03:47:06;16.65;59.54
71436;SHT31;59251;51.326;12.370;2022-07-29T03:49:35;16.72;59.51
71436;SHT31;59251;51.326;12.370;2022-07-29T03:52:02;16.68;59.58
71436;SHT31;59251;51.326;12.370;2022-07-29T03:54:27;16.62;59.67
71436;SHT31;59251;51.326;12.370;2022-07-29T03:56:54;16.56;59.80
71436;SHT31;59251;51.326;12.370;2022-07-29T03:59:20;16.56;59.91
71436;SHT31;59251;51.326;12.370;2022-07-29T04:01:48;16.58;59.84
71436;SHT31;59251;51.326;12.370;2022-07-29T04:04:14;16.65;59.65
71436;SHT31;59251;51.326;12.370;2022-07-29T04:06:41;16.56;59.90
71436;SHT31;59251;51.326;12.370;2022-07-29T04:09:07;16.59;59.97
71436;SHT31;59251;51.326;12.370;2022-07-29T04:11:33;16.64;59.73
71436;SHT31;59251;51.326;12.370;2022-07-29T04:13:59;16.65;59.73
71436;SHT31;59251;51.326;12.370;2022-07-29T04:16:24;16.69;59.56
71436;SHT31;59251;51.326;12.370;2022-07-29T04:18:50;16.68;59.53
71436;SHT31;59251;51.326;12.370;2022-07-29T04:21:15;16.66;59.53
71436;SHT31;59251;51.326;12.370;2022-07-29T04:23:40;16.64;59.62
71436;SHT31;59251;51.326;12.370;2022-07-29T04:26:06;16.58;59.75
71436;SHT31;59251;51.326;12.370;2022-07-29T04:28:34;16.76;59.38
71436;SHT31;59251;51.326;12.370;2022-07-29T04:31:00;16.66;59.66
71436;SHT31;59251;51.326;12.370;2022-07-29T04:33:25;16.62;59.80
71436;SHT31;59251;51.326;12.370;2022-07-29T04:35:51;16.79;59.30
71436;SHT31;59251;51.326;12.370;2022-07-29T04:38:16;16.52;59.94
71436;SHT31;59251;51.326;12.370;2022-07-29T04:40:42;16.64;59.80
71436;SHT31;59251;51.326;12.370;2022-07-29T04:43:07;16.58;59.82
71436;SHT31;59251;51.326;12.370;2022-07-29T04:45:33;16.49;60.05
71436;SHT31;59251;51.326;12.370;2022-07-29T04:47:58;16.61;59.90
71436;SHT31;59251;51.326;12.370;2022-07-29T04:50:23;16.86;59.40
71436;SHT31;59251;51.326;12.370;2022-07-29T04:52:49;16.75;59.64
71436;SHT31;59251;51.326;12.370;2022-07-29T04:55:14;16.87;59.34
71436;SHT31;59251;51.326;12.370;2022-07-29T04:57:40;16.94;59.47
71436;SHT31;59251;51.326;12.370;2022-07-29T05:00:06;16.76;59.56
71436;SHT31;59251;51.326;12.370;2022-07-29T05:02:32;16.96;59.31
71436;SHT31;59251;51.326;12.370;2022-07-29T05:04:57;17.06;59.37
71436;SHT31;59251;51.326;12.370;2022-07-29T05:07:23;16.79;59.42
71436;SHT31;59251;51.326;12.370;2022-07-29T05:09:48;16.90;59.24
71436;SHT31;59251;51.326;12.370;2022-07-29T05:12:14;17.00;59.19
71436;SHT31;59251;51.326;12.370;2022-07-29T05:14:39;16.87;59.31
71436;SHT31;59251;51.326;12.370;2022-07-29T05:17:04;16.92;59.15
71436;SHT31;59251;51.326;12.370;2022-07-29T05:19:30;16.87;59.41
71436;SHT31;59251;51.326;12.370;2022-07-29T05:21:56;17.10;58.81
71436;SHT31;59251;51.326;12.370;2022-07-29T05:24:22;17.31;58.41
71436;SHT31;59251;51.326;12.370;2022-07-29T05:26:47;17.13;58.62
71436;SHT31;59251;51.326;12.370;2022-07-29T05:29:12;17.17;58.72
71436;SHT31;59251;51.326;12.370;2022-07-29T05:31:38;17.48;57.89
71436;SHT31;59251;51.326;12.370;2022-07-29T05:34:03;17.27;58.02
71436;SHT31;59251;51.326;12.370;2022-07-29T05:36:29;17.52;57.63
71436;SHT31;59251;51.326;12.370;2022-07-29T05:38:54;18.02;56.53
71436;SHT31;59251;51.326;12.370;2022-07-29T05:41:19;18.14;55.88
71436;SHT31;59251;51.326;12.370;2022-07-29T05:43:45;18.58;56.43
71436;SHT31;59251;51.326;12.370;2022-07-29T05:46:10;18.91;55.25
71436;SHT31;59251;51.326;12.370;2022-07-29T05:48:36;18.58;55.42
71436;SHT31;59251;51.326;12.370;2022-07-29T05:51:01;18.63;55.36
71436;SHT31;59251;51.326;12.370;2022-07-29T05:53:27;18.27;56.16
71436;SHT31;59251;51.326;12.370;2022-07-29T05:55:53;18.19;56.11
71436;SHT31;59251;51.326;12.370;2022-07-29T05:58:19;18.16;55.99
71436;SHT31;59251;51.326;12.370;2022-07-29T06:00:44;17.96;56.87
71436;SHT31;59251;51.326;12.370;2022-07-29T06:03:10;18.20;56.31
71436;SHT31;59251;51.326;12.370;2022-07-29T06:05:35;18.02;56.55
71436;SHT31;59251;51.326;12.370;2022-07-29T06:08:02;18.32;55.94
71436;SHT31;59251;51.326;12.370;2022-07-29T06:10:29;18.47;56.09
71436;SHT31;59251;51.326;12.370;2022-07-29T06:12:54;18.51;56.03
71436;SHT31;59251;51.326;12.370;2022-07-29T06:15:19;18.43;56.30
71436;SHT31;59251;51.326;12.370;2022-07-29T06:17:45;17.95;56.84
71436;SHT31;59251;51.326;12.370;2022-07-29T06:20:10;18.27;56.29
71436;SHT31;59251;51.326;12.370;2022-07-29T06:22:36;18.16;56.30
71436;SHT31;59251;51.326;12.370;2022-07-29T06:25:02;18.20;56.49
71436;SHT31;59251;51.326;12.370;2022-07-29T06:27:27;18.30;56.43
71436;SHT31;59251;51.326;12.370;2022-07-29T06:29:53;18.85;55.36
71436;SHT31;59251;51.326;12.370;2022-07-29T06:32:19;18.48;56.02
71436;SHT31;59251;51.326;12.370;2022-07-29T06:34:44;18.54;55.95
71436;SHT31;59251;51.326;12.370;2022-07-29T06:37:09;18.60;55.60
71436;SHT31;59251;51.326;12.370;2022-07-29T06:39:35;18.71;55.80
71436;SHT31;59251;51.326;12.370;2022-07-29T06:42:03;18.98;55.47
71436;SHT31;59251;51.326;12.370;2022-07-29T06:44:28;18.63;55.68
71436;SHT31;59251;51.326;12.370;2022-07-29T06:46:55;19.16;54.82
71436;SHT31;59251;51.326;12.370;2022-07-29T06:49:20;18.61;55.40
71436;SHT31;59251;51.326;12.370;2022-07-29T06:51:46;18.75;55.68
71436;SHT31;59251;51.326;12.370;2022-07-29T06:54:11;18.95;55.53
71436;SHT31;59251;51.326;12.370;2022-07-29T06:56:37;19.19;54.77
71436;SHT31;59251;51.326;12.370;2022-07-29T06:59:03;19.32;53.97
71436;SHT31;59251;51.326;12.370;2022-07-29T07:01:29;19.08;54.80
71436;SHT31;59251;51.326;12.370;2022-07-29T07:03:54;19.20;54.42
71436;SHT31;59251;51.326;12.370;2022-07-29T07:06:20;19.16;54.54
71436;SHT31;59251;51.326;12.370;2022-07-29T07:08:46;19.29;54.13
71436;SHT31;59251;51.326;12.370;2022-07-29T07:11:11;19.56;53.29
71436;SHT31;59251;51.326;12.370;2022-07-29T07:13:37;19.46;53.88
71436;SHT31;59251;51.326;12.370;2022-07-29T07:16:03;19.91;52.89
71436;SHT31;59251;51.326;12.370;2022-07-29T07:18:29;20.05;52.63
71436;SHT31;59251;51.326;12.370;2022-07-29T07:20:56;19.84;52.94
71436;SHT31;59251;51.326;12.370;2022-07-29T07:23:21;20.09;52.40
71436;SHT31;59251;51.326;12.370;2022-07-29T07:25:47;20.53;51.89
71436;SHT31;59251;51.326;12.370;2022-07-29T07:28:12;20.17;51.97
71436;SHT31;59251;51.326;12.370;2022-07-29T07:30:39;20.39;51.65
71436;SHT31;59251;51.326;12.370;2022-07-29T07:33:04;20.70;51.09
71436;SHT31;59251;51.326;12.370;2022-07-29T07:35:30;20.66;51.17
71436;SHT31;59251;51.326;12.370;2022-07-29T07:37:56;20.62;51.33
71436;SHT31;59251;51.326;12.370;2022-07-29T07:40:22;20.95;50.54
71436;SHT31;59251;51.326;12.370;2022-07-29T07:42:47;21.08;50.50
71436;SHT31;59251;51.326;12.370;2022-07-29T07:45:13;21.22;49.95
71436;SHT31;59251;51.326;12.370;2022-07-29T07:47:38;20.79;50.79
71436;SHT31;59251;51.326;12.370;2022-07-29T07:50:06;20.80;50.65
71436;SHT31;59251;51.326;12.370;2022-07-29T07:52:32;21.10;50.05
71436;SHT31;59251;51.326;12.370;2022-07-29T07:54:58;21.37;49.71
71436;SHT31;59251;51.326;12.370;2022-07-29T07:57:23;21.28;49.77
71436;SHT31;59251;51.326;12.370;2022-07-29T07:59:49;21.94;48.45
71436;SHT31;59251;51.326;12.370;2022-07-29T08:02:14;21.41;49.45
71436;SHT31;59251;51.326;12.370;2022-07-29T08:04:40;21.79;48.84
71436;SHT31;59251;51.326;12.370;2022-07-29T08:07:06;22.11;48.27
71436;SHT31;59251;51.326;12.370;2022-07-29T08:09:33;22.27;47.94
71436;SHT31;59251;51.326;12.370;2022-07-29T08:11:59;22.28;47.80
71436;SHT31;59251;51.326;12.370;2022-07-29T08:14:27;22.33;48.24
71436;SHT31;59251;51.326;12.370;2022-07-29T08:16:52;22.25;47.94
71436;SHT31;59251;51.326;12.370;2022-07-29T08:19:18;22.54;47.18
71436;SHT31;59251;51.326;12.370;2022-07-29T08:21:44;22.18;47.80
71436;SHT31;59251;51.326;12.370;2022-07-29T08:24:09;22.38;47.48
71436;SHT31;59251;51.326;12.370;2022-07-29T08:26:53;22.52;47.23
71436;SHT31;59251;51.326;12.370;2022-07-29T08:29:19;22.72;46.83
71436;SHT31;59251;51.326;12.370;2022-07-29T08:31:44;23.30;45.49
71436;SHT31;59251;51.326;12.370;2022-07-29T08:34:10;23.22;45.86
71436;SHT31;59251;51.326;12.370;2022-07-29T08:36:37;23.27;46.13
71436;SHT31;59251;51.326;12.370;2022-07-29T08:39:02;23.67;45.26
71436;SHT31;59251;51.326;12.370;2022-07-29T08:41:28;24.13;44.49
71436;SHT31;59251;51.326;12.370;2022-07-29T08:43:53;24.19;43.74
71436;SHT31;59251;51.326;12.370;2022-07-29T08:46:19;23.79;44.85
71436;SHT31;59251;51.326;12.370;2022-07-29T08:48:45;24.23;44.08
71436;SHT31;59251;51.326;12.370;2022-07-29T08:51:17;23.84;45.10
71436;SHT31;59251;51.326;12.370;2022-07-29T08:53:44;24.19;44.55
71436;SHT31;59251;51.326;12.370;2022-07-29T08:56:13;24.08;44.38
71436;SHT31;59251;51.326;12.370;2022-07-29T08:58:39;24.36;44.09
71436;SHT31;59251;51.326;12.370;2022-07-29T09:01:06;24.08;44.41
71436;SHT31;59251;51.326;12.370;2022-07-29T09:03:34;24.90;42.85
71436;SHT31;59251;51.326;12.370;2022-07-29T09:06:01;25.18;42.21
71436;SHT31;59251;51.326;12.370;2022-07-29T09:08:27;24.35;43.93
71436;SHT31;59251;51.326;12.370;2022-07-29T09:10:54;24.56;43.51
71436;SHT31;59251;51.326;12.370;2022-07-29T09:13:21;24.47;43.28
71436;SHT31;59251;51.326;12.370;2022-07-29T09:15:47;24.97;42.34
71436;SHT31;59251;51.326;12.370;2022-07-29T09:21:05;25.49;41.57
71436;SHT31;59251;51.326;12.370;2022-07-29T09:24:09;25.63;41.67
71436;SHT31;59251;51.326;12.370;2022-07-29T09:26:37;25.58;41.34
71436;SHT31;59251;51.326;12.370;2022-07-29T09:29:23;25.35;41.64
71436;SHT31;59251;51.326;12.370;2022-07-29T09:31:51;25.72;41.17
71436;SHT31;59251;51.326;12.370;2022-07-29T09:34:25;25.18;41.84
71436;SHT31;59251;51.326;12.370;2022-07-29T09:36:52;25.72;41.07
71436;SHT31;59251;51.326;12.370;2022-07-29T09:39:37;25.72;41.02
71436;SHT31;59251;51.326;12.370;2022-07-29T09:42:10;25.38;41.68
71436;SHT31;59251;51.326;12.370;2022-07-29T09:44:47;25.84;41.31
71436;SHT31;59251;51.326;12.370;2022-07-29T09:47:13;26.20;40.46
71436;SHT31;59251;51.326;12.370;2022-07-29T09:52:19;26.47;40.03
71436;SHT31;59251;51.326;12.370;2022-07-29T09:54:44;26.27;40.11
71436;SHT31;59251;51.326;12.370;2022-07-29T09:57:23;25.72;41.06
71436;SHT31;59251;51.326;12.370;2022-07-29T10:00:00;26.32;40.07
71436;SHT31;59251;51.326;12.370;2022-07-29T10:02:33;26.27;40.22
71436;SHT31;59251;51.326;12.370;2022-07-29T10:05:00;26.07;40.35
71436;SHT31;59251;51.326;12.370;2022-07-29T10:07:43;25.93;40.57
71436;SHT31;59251;51.326;12.370;2022-07-29T10:10:08;26.24;40.27
71436;SHT31;59251;51.326;12.370;2022-07-29T10:12:48;26.72;39.80
71436;SHT31;59251;51.326;12.370;2022-07-29T10:15:15;26.49;39.63
71436;SHT31;59251;51.326;12.370;2022-07-29T10:17:41;26.05;39.70
71436;SHT31;59251;51.326;12.370;2022-07-29T10:20:07;26.13;39.75
71436;SHT31;59251;51.326;12.370;2022-07-29T10:22:33;26.18;39.86
71436;SHT31;59251;51.326;12.370;2022-07-29T10:24:59;26.20;39.57
71436;SHT31;59251;51.326;12.370;2022-07-29T10:27:25;26.52;38.66
71436;SHT31;59251;51.326;12.370;2022-07-29T10:29:50;26.80;39.04
71436;SHT31;59251;51.326;12.370;2022-07-29T10:35:19;27.41;37.78
71436;SHT31;59251;51.326;12.370;2022-07-29T10:37:52;26.86;36.51
71436;SHT31;59251;51.326;12.370;2022-07-29T10:40:43;27.61;36.30
71436;SHT31;59251;51.326;12.370;2022-07-29T10:43:37;27.27;37.06
71436;SHT31;59251;51.326;12.370;2022-07-29T10:46:05;27.72;36.86
71436;SHT31;59251;51.326;12.370;2022-07-29T10:48:31;27.88;35.28
71436;SHT31;59251;51.326;12.370;2022-07-29T10:50:58;27.84;34.46
71436;SHT31;59251;51.326;12.370;2022-07-29T10:53:46;27.61;35.03
71436;SHT31;59251;51.326;12.370;2022-07-29T10:56:29;28.03;34.62
71436;SHT31;59251;51.326;12.370;2022-07-29T11:01:48;28.67;33.41
71436;SHT31;59251;51.326;12.370;2022-07-29T11:04:15;28.98;33.26
71436;SHT31;59251;51.326;12.370;2022-07-29T11:09:32;28.37;33.85
71436;SHT31;59251;51.326;12.370;2022-07-29T11:11:58;28.91;34.00
71436;SHT31;59251;51.326;12.370;2022-07-29T11:17:17;28.87;34.26
71436;SHT31;59251;51.326;12.370;2022-07-29T11:19:43;28.29;34.56
71436;SHT31;59251;51.326;12.370;2022-07-29T11:22:10;28.84;34.17
71436;SHT31;59251;51.326;12.370;2022-07-29T11:24:36;28.53;34.08
71436;SHT31;59251;51.326;12.370;2022-07-29T11:29:48;29.09;33.63
71436;SHT31;59251;51.326;12.370;2022-07-29T11:32:15;28.74;34.08
71436;SHT31;59251;51.326;12.370;2022-07-29T11:34:43;28.21;34.29
71436;SHT31;59251;51.326;12.370;2022-07-29T11:44:54;30.65;31.25
71436;SHT31;59251;51.326;12.370;2022-07-29T11:47:21;29.63;33.13
71436;SHT31;59251;51.326;12.370;2022-07-29T11:49:47;29.74;33.09
71436;SHT31;59251;51.326;12.370;2022-07-29T11:52:13;30.25;32.71
71436;SHT31;59251;51.326;12.370;2022-07-29T11:54:41;30.75;32.09
71436;SHT31;59251;51.326;12.370;2022-07-29T11:57:07;29.26;33.65
71436;SHT31;59251;51.326;12.370;2022-07-29T11:59:39;31.25;31.14
71436;SHT31;59251;51.326;12.370;2022-07-29T12:02:05;31.46;31.16
71436;SHT31;59251;51.326;12.370;2022-07-29T12:04:30;31.49;31.02
71436;SHT31;59251;51.326;12.370;2022-07-29T12:06:56;30.48;32.24
71436;SHT31;59251;51.326;12.370;2022-07-29T12:09:22;30.77;32.06
71436;SHT31;59251;51.326;12.370;2022-07-29T12:11:49;30.66;32.20
71436;SHT31;59251;51.326;12.370;2022-07-29T12:16:50;32.56;29.87
71436;SHT31;59251;51.326;12.370;2022-07-29T12:19:16;32.56;30.39
71436;SHT31;59251;51.326;12.370;2022-07-29T12:24:10;30.70;33.17
71436;SHT31;59251;51.326;12.370;2022-07-29T12:26:35;29.73;34.12
71436;SHT31;59251;51.326;12.370;2022-07-29T12:29:02;31.52;31.92
71436;SHT31;59251;51.326;12.370;2022-07-29T12:31:27;32.81;30.31
71436;SHT31;59251;51.326;12.370;2022-07-29T12:33:53;32.81;30.50
71436;SHT31;59251;51.326;12.370;2022-07-29T12:36:19;32.63;30.56
71436;SHT31;59251;51.326;12.370;2022-07-29T12:38:45;32.34;30.79
71436;SHT31;59251;51.326;12.370;2022-07-29T12:41:11;32.58;30.79
71436;SHT31;59251;51.326;12.370;2022-07-29T12:43:36;31.44;32.01
71436;SHT31;59251;51.326;12.370;2022-07-29T12:46:14;32.31;31.12
71436;SHT31;59251;51.326;12.370;2022-07-29T12:48:42;30.84;32.90
71436;SHT31;59251;51.326;12.370;2022-07-29T12:51:08;30.27;33.30
71436;SHT31;59251;51.326;12.370;2022-07-29T12:53:35;30.12;33.20
71436;SHT31;59251;51.326;12.370;2022-07-29T12:56:02;30.97;32.58
71436;SHT31;59251;51.326;12.370;2022-07-29T13:01:14;30.11;33.59
71436;SHT31;59251;51.326;12.370;2022-07-29T13:03:47;30.36;33.79
71436;SHT31;59251;51.326;12.370;2022-07-29T13:06:37;30.28;33.99
71436;SHT31;59251;51.326;12.370;2022-07-29T13:11:44;30.17;34.01
71436;SHT31;59251;51.326;12.370;2022-07-29T13:17:16;29.54;34.42
71436;SHT31;59251;51.326;12.370;2022-07-29T13:19:47;29.87;34.13
71436;SHT31;59251;51.326;12.370;2022-07-29T13:22:15;29.98;33.63
71436;SHT31;59251;51.326;12.370;2022-07-29T13:24:57;30.75;33.44
71436;SHT31;59251;51.326;12.370;2022-07-29T13:27:27;29.88;34.68
71436;SHT31;59251;51.326;12.370;2022-07-29T13:29:53;30.22;33.77
71436;SHT31;59251;51.326;12.370;2022-07-29T13:32:22;31.06;32.72
71436;SHT31;59251;51.326;12.370;2022-07-29T13:34:47;31.34;32.05
71436;SHT31;59251;51.326;12.370;2022-07-29T13:37:13;31.24;32.02
71436;SHT31;59251;51.326;12.370;2022-07-29T13:39:39;31.48;31.82
71436;SHT31;59251;51.326;12.370;2022-07-29T13:42:06;31.27;32.02
71436;SHT31;59251;51.326;12.370;2022-07-29T13:44:31;29.92;33.86
71436;SHT31;59251;51.326;12.370;2022-07-29T13:46:57;29.74;33.69
71436;SHT31;59251;51.326;12.370;2022-07-29T13:49:24;29.59;34.31
71436;SHT31;59251;51.326;12.370;2022-07-29T13:51:49;29.77;34.32
71436;SHT31;59251;51.326;12.370;2022-07-29T13:54:15;29.33;34.66
71436;SHT31;59251;51.326;12.370;2022-07-29T13:56:41;29.52;34.61
71436;SHT31;59251;51.326;12.370;2022-07-29T13:59:06;29.81;34.48
71436;SHT31;59251;51.326;12.370;2022-07-29T14:01:33;29.98;33.97
71436;SHT31;59251;51.326;12.370;2022-07-29T14:03:59;29.62;34.47
71436;SHT31;59251;51.326;12.370;2022-07-29T14:06:24;29.53;34.77
71436;SHT31;59251;51.326;12.370;2022-07-29T14:08:50;29.53;34.72
71436;SHT31;59251;51.326;12.370;2022-07-29T14:11:15;29.63;34.40
71436;SHT31;59251;51.326;12.370;2022-07-29T14:13:40;29.59;34.61
71436;SHT31;59251;51.326;12.370;2022-07-29T14:16:06;29.76;34.32
71436;SHT31;59251;51.326;12.370;2022-07-29T14:18:32;29.78;34.27
71436;SHT31;59251;51.326;12.370;2022-07-29T14:20:58;29.63;34.50
71436;SHT31;59251;51.326;12.370;2022-07-29T14:23:23;29.47;34.57
71436;SHT31;59251;51.326;12.370;2022-07-29T14:25:49;30.07;34.19
71436;SHT31;59251;51.326;12.370;2022-07-29T14:28:14;29.78;34.71
71436;SHT31;59251;51.326;12.370;2022-07-29T14:30:39;29.09;35.30
71436;SHT31;59251;51.326;12.370;2022-07-29T14:33:05;29.27;35.35
71436;SHT31;59251;51.326;12.370;2022-07-29T14:35:30;29.18;35.14
71436;SHT31;59251;51.326;12.370;2022-07-29T14:37:56;29.11;35.45
71436;SHT31;59251;51.326;12.370;2022-07-29T14:40:22;28.99;35.80
71436;SHT31;59251;51.326;12.370;2022-07-29T14:42:47;29.20;35.60
71436;SHT31;59251;51.326;12.370;2022-07-29T14:45:13;28.90;35.85
71436;SHT31;59251;51.326;12.370;2022-07-29T14:47:38;29.27;35.72
71436;SHT31;59251;51.326;12.370;2022-07-29T14:50:05;29.53;35.40
71436;SHT31;59251;51.326;12.370;2022-07-29T14:52:31;29.62;34.99
71436;SHT31;59251;51.326;12.370;2022-07-29T14:54:56;29.05;35.92
71436;SHT31;59251;51.326;12.370;2022-07-29T14:57:22;29.20;35.83
71436;SHT31;59251;51.326;12.370;2022-07-29T14:59:47;29.15;35.66
71436;SHT31;59251;51.326;12.370;2022-07-29T15:02:13;29.12;35.95
71436;SHT31;59251;51.326;12.370;2022-07-29T15:04:38;29.27;35.87
71436;SHT31;59251;51.326;12.370;2022-07-29T15:07:03;29.46;35.40
71436;SHT31;59251;51.326;12.370;2022-07-29T15:09:29;29.57;35.33
71436;SHT31;59251;51.326;12.370;2022-07-29T15:11:54;29.11;35.90
71436;SHT31;59251;51.326;12.370;2022-07-29T15:14:20;28.85;36.30
71436;SHT31;59251;51.326;12.370;2022-07-29T15:16:46;29.02;36.10
71436;SHT31;59251;51.326;12.370;2022-07-29T15:19:11;29.22;36.27
71436;SHT31;59251;51.326;12.370;2022-07-29T15:21:37;28.95;36.46
71436;SHT31;59251;51.326;12.370;2022-07-29T15:24:03;28.77;36.63
71436;SHT31;59251;51.326;12.370;2022-07-29T15:26:28;28.84;36.65
71436;SHT31;59251;51.326;12.370;2022-07-29T15:28:54;28.65;36.83
71436;SHT31;59251;51.326;12.370;2022-07-29T15:31:21;29.08;36.59
71436;SHT31;59251;51.326;12.370;2022-07-29T15:33:47;29.46;36.15
71436;SHT31;59251;51.326;12.370;2022-07-29T15:36:12;29.37;36.25
71436;SHT31;59251;51.326;12.370;2022-07-29T15:38:38;29.16;36.43
71436;SHT31;59251;51.326;12.370;2022-07-29T15:41:06;29.74;35.94
71436;SHT31;59251;51.326;12.370;2022-07-29T15:43:31;29.63;35.80
71436;SHT31;59251;51.326;12.370;2022-07-29T15:45:56;29.02;37.00
71436;SHT31;59251;51.326;12.370;2022-07-29T15:48:40;27.65;43.15
71436;SHT31;59251;51.326;12.370;2022-07-29T15:51:06;27.64;44.10
71436;SHT31;59251;51.326;12.370;2022-07-29T15:53:31;26.96;46.46
71436;SHT31;59251;51.326;12.370;2022-07-29T15:55:56;27.24;46.21
71436;SHT31;59251;51.326;12.370;2022-07-29T15:58:22;27.31;46.51
71436;SHT31;59251;51.326;12.370;2022-07-29T16:00:48;26.34;48.42
71436;SHT31;59251;51.326;12.370;2022-07-29T16:03:13;26.25;49.65
71436;SHT31;59251;51.326;12.370;2022-07-29T16:05:39;26.14;50.08
71436;SHT31;59251;51.326;12.370;2022-07-29T16:08:05;26.13;49.75
71436;SHT31;59251;51.326;12.370;2022-07-29T16:10:30;26.37;49.80